GEC8160 EDDF-KJFK
Flight info
| Callsign | GEC8160 |
|---|---|
| Flight time | N/A |
| Altitude | 32000 |
| Route | OBOKA3D/07C OBOKA Z29 TORNU DCT VELED DCT BREDA DCT GALSO Q63 ERING L179 UGBET Q60 OKSAW DCT TIGWE DCT ARPAK DCT FELCA DCT OFSOX DCT SLANY DCT MALOT/M082F320 DCT 54N020W 55N030W 55N040W 53N050W DCT RIKAL/N0476F320 N572A TOPPS DCT ENE PARCH4 |
| Aircraft | B77L/H-SDE1E2E3FGHIJ2J3J4J5M1RWXY/LB1D1 |
Departure
| Time | 2026-05-01 14:04 |
|---|---|
| Airport | Frankfurt Main Airport (EDDF) |
Arrival
| Time | N/A |
|---|---|
| Airport | John F. Kennedy International Airport (KJFK) |
| Time | Latitude | Longitude | Altitude | Speed | Heading |
|---|---|---|---|---|---|
| 2026-05-01 13:13 | 50.03964 | 8.54380 | 352 ft | 0 kts | 69° |
| 2026-05-01 13:51 | 50.03962 | 8.54371 | 362 ft | 4 kts | 70° |
| 2026-05-01 13:51 | 50.03953 | 8.54332 | 358 ft | 4 kts | 74° |
| 2026-05-01 13:52 | 50.03947 | 8.54291 | 361 ft | 4 kts | 86° |
| 2026-05-01 13:52 | 50.03950 | 8.54254 | 360 ft | 4 kts | 134° |
| 2026-05-01 13:52 | 50.03954 | 8.54247 | 360 ft | 4 kts | 160° |
| 2026-05-01 13:52 | 50.03929 | 8.54262 | 361 ft | 4 kts | 159° |
| 2026-05-01 13:53 | 50.03923 | 8.54265 | 359 ft | 3 kts | 159° |
| 2026-05-01 13:57 | 50.03918 | 8.54268 | 351 ft | 3 kts | 159° |
| 2026-05-01 13:57 | 50.03875 | 8.54293 | 349 ft | 9 kts | 159° |
| 2026-05-01 13:57 | 50.03819 | 8.54326 | 355 ft | 9 kts | 159° |
| 2026-05-01 13:58 | 50.03786 | 8.54345 | 360 ft | 4 kts | 160° |
| 2026-05-01 13:58 | 50.03773 | 8.54353 | 357 ft | 1 kts | 159° |
| 2026-05-01 13:58 | 50.03772 | 8.54353 | 357 ft | 0 kts | 159° |
| 2026-05-01 13:59 | 50.03766 | 8.54357 | 357 ft | 3 kts | 159° |
| 2026-05-01 13:59 | 50.03738 | 8.54373 | 356 ft | 5 kts | 159° |
| 2026-05-01 14:00 | 50.03702 | 8.54381 | 353 ft | 5 kts | 188° |
| 2026-05-01 14:00 | 50.03672 | 8.54350 | 357 ft | 5 kts | 225° |
| 2026-05-01 14:00 | 50.03647 | 8.54320 | 356 ft | 4 kts | 208° |
| 2026-05-01 14:00 | 50.03615 | 8.54313 | 353 ft | 5 kts | 178° |
| 2026-05-01 14:01 | 50.03585 | 8.54324 | 351 ft | 4 kts | 161° |
| 2026-05-01 14:01 | 50.03555 | 8.54341 | 351 ft | 6 kts | 160° |
| 2026-05-01 14:01 | 50.03524 | 8.54359 | 353 ft | 2 kts | 160° |
| 2026-05-01 14:01 | 50.03499 | 8.54376 | 352 ft | 5 kts | 147° |
| 2026-05-01 14:02 | 50.03492 | 8.54409 | 355 ft | 1 kts | 81° |
| 2026-05-01 14:02 | 50.03494 | 8.54416 | 354 ft | 0 kts | 75° |
| 2026-05-01 14:02 | 50.03498 | 8.54440 | 358 ft | 0 kts | 73° |
| 2026-05-01 14:02 | 50.03499 | 8.54441 | 358 ft | 2 kts | 73° |
| 2026-05-01 14:03 | 50.03542 | 8.54630 | 355 ft | 45 kts | 70° |
| 2026-05-01 14:03 | 50.03738 | 8.55452 | 359 ft | 114 kts | 69° |
| 2026-05-01 14:03 | 50.04084 | 8.56908 | 368 ft | 170 kts | 69° |
| 2026-05-01 14:03 | 50.04540 | 8.58813 | 563 ft | 196 kts | 71° |
| 2026-05-01 14:04 | 50.05017 | 8.60815 | 1163 ft | 198 kts | 72° |
| 2026-05-01 14:04 | 50.05476 | 8.62818 | 1848 ft | 195 kts | 73° |
| 2026-05-01 14:04 | 50.05943 | 8.64876 | 2209 ft | 211 kts | 73° |
| 2026-05-01 14:04 | 50.06470 | 8.67090 | 2504 ft | 224 kts | 73° |
| 2026-05-01 14:05 | 50.06963 | 8.69378 | 3194 ft | 217 kts | 75° |
| 2026-05-01 14:05 | 50.07581 | 8.71481 | 3776 ft | 223 kts | 50° |
| 2026-05-01 14:05 | 50.08984 | 8.72818 | 3877 ft | 247 kts | 20° |
| 2026-05-01 14:05 | 50.10647 | 8.73664 | 4107 ft | 264 kts | 22° |
| 2026-05-01 14:06 | 50.12396 | 8.74666 | 4584 ft | 274 kts | 24° |
| 2026-05-01 14:06 | 50.14190 | 8.75797 | 5207 ft | 281 kts | 25° |
| 2026-05-01 14:06 | 50.16001 | 8.76988 | 5886 ft | 284 kts | 25° |
| 2026-05-01 14:06 | 50.17827 | 8.78208 | 6579 ft | 286 kts | 25° |
| 2026-05-01 14:07 | 50.19652 | 8.79441 | 7292 ft | 287 kts | 26° |
| 2026-05-01 14:07 | 50.21497 | 8.80691 | 7915 ft | 289 kts | 26° |
| 2026-05-01 14:07 | 50.23352 | 8.81945 | 8538 ft | 291 kts | 24° |
| 2026-05-01 14:08 | 50.27329 | 8.81565 | 9576 ft | 301 kts | 326° |
| 2026-05-01 14:08 | 50.28791 | 8.79261 | 10160 ft | 302 kts | 298° |
| 2026-05-01 14:08 | 50.29591 | 8.76230 | 10546 ft | 305 kts | 287° |
| 2026-05-01 14:08 | 50.30284 | 8.72960 | 10702 ft | 325 kts | 287° |
| 2026-05-01 14:09 | 50.31023 | 8.69498 | 10876 ft | 346 kts | 287° |
| 2026-05-01 14:09 | 50.31808 | 8.65860 | 11022 ft | 367 kts | 287° |
| 2026-05-01 14:09 | 50.32648 | 8.61988 | 11314 ft | 383 kts | 288° |
| 2026-05-01 14:09 | 50.33680 | 8.58029 | 11810 ft | 393 kts | 295° |
| 2026-05-01 14:10 | 50.34944 | 8.54250 | 12477 ft | 398 kts | 297° |
| 2026-05-01 14:10 | 50.36265 | 8.50405 | 13241 ft | 402 kts | 298° |
| 2026-05-01 14:10 | 50.37595 | 8.46526 | 13980 ft | 406 kts | 298° |
| 2026-05-01 14:10 | 50.38933 | 8.42595 | 14623 ft | 410 kts | 297° |
| 2026-05-01 14:11 | 50.40273 | 8.38628 | 15306 ft | 413 kts | 297° |
| 2026-05-01 14:11 | 50.42956 | 8.30601 | 16699 ft | 416 kts | 297° |
| 2026-05-01 14:11 | 50.44302 | 8.26552 | 17301 ft | 422 kts | 297° |
| 2026-05-01 14:12 | 50.45643 | 8.22507 | 17922 ft | 425 kts | 297° |
| 2026-05-01 14:12 | 50.47026 | 8.18331 | 18627 ft | 427 kts | 297° |
| 2026-05-01 14:12 | 50.48376 | 8.14240 | 19155 ft | 430 kts | 297° |
| 2026-05-01 14:12 | 50.49763 | 8.10030 | 19662 ft | 434 kts | 297° |
| 2026-05-01 14:13 | 50.51155 | 8.05796 | 20147 ft | 439 kts | 297° |
| 2026-05-01 14:13 | 50.52106 | 8.02907 | 20552 ft | 440 kts | 297° |
| 2026-05-01 14:13 | 50.53972 | 7.97220 | 21297 ft | 443 kts | 297° |
| 2026-05-01 14:13 | 50.55382 | 7.92911 | 21881 ft | 445 kts | 297° |
| 2026-05-01 14:14 | 50.56799 | 7.88581 | 22462 ft | 446 kts | 297° |
| 2026-05-01 14:14 | 50.58222 | 7.84228 | 23052 ft | 447 kts | 297° |
| 2026-05-01 14:14 | 50.59649 | 7.79851 | 23485 ft | 453 kts | 297° |
| 2026-05-01 14:14 | 50.61092 | 7.75415 | 23871 ft | 459 kts | 297° |
| 2026-05-01 14:15 | 50.62550 | 7.70924 | 24309 ft | 460 kts | 297° |
| 2026-05-01 14:15 | 50.64005 | 7.66432 | 24838 ft | 461 kts | 297° |
| 2026-05-01 14:15 | 50.65461 | 7.61929 | 25273 ft | 463 kts | 298° |
| 2026-05-01 14:15 | 50.66926 | 7.57393 | 25693 ft | 465 kts | 297° |
| 2026-05-01 14:16 | 50.68396 | 7.52833 | 26152 ft | 466 kts | 297° |
| 2026-05-01 14:16 | 50.69869 | 7.48254 | 26621 ft | 468 kts | 297° |
| 2026-05-01 14:16 | 50.71345 | 7.43658 | 26936 ft | 472 kts | 297° |
| 2026-05-01 14:16 | 50.72837 | 7.39006 | 27332 ft | 475 kts | 298° |
| 2026-05-01 14:17 | 50.74328 | 7.34346 | 27687 ft | 478 kts | 298° |
| 2026-05-01 14:17 | 50.75836 | 7.29662 | 28124 ft | 479 kts | 298° |
| 2026-05-01 14:17 | 50.77365 | 7.24956 | 28466 ft | 482 kts | 298° |
| 2026-05-01 14:17 | 50.78905 | 7.20230 | 28805 ft | 485 kts | 298° |
| 2026-05-01 14:18 | 50.80452 | 7.15470 | 29210 ft | 486 kts | 298° |
| 2026-05-01 14:18 | 50.81998 | 7.10696 | 29626 ft | 487 kts | 298° |
| 2026-05-01 14:18 | 50.83512 | 7.06008 | 30218 ft | 483 kts | 298° |
| 2026-05-01 14:18 | 50.84542 | 7.02808 | 30496 ft | 483 kts | 298° |
| 2026-05-01 14:19 | 50.86563 | 6.96525 | 30980 ft | 482 kts | 297° |
| 2026-05-01 14:19 | 50.88080 | 6.91807 | 31419 ft | 480 kts | 297° |
| 2026-05-01 14:19 | 50.89591 | 6.87114 | 31845 ft | 477 kts | 297° |
| 2026-05-01 14:19 | 50.91097 | 6.82435 | 32250 ft | 475 kts | 297° |
| 2026-05-01 14:20 | 50.95583 | 6.68445 | 32267 ft | 474 kts | 297° |
| 2026-05-01 14:21 | 50.98561 | 6.59107 | 32267 ft | 474 kts | 296° |
| 2026-05-01 14:21 | 51.01538 | 6.49735 | 32264 ft | 475 kts | 296° |
| 2026-05-01 14:22 | 51.05987 | 6.35656 | 32260 ft | 476 kts | 296° |
| 2026-05-01 14:22 | 51.08936 | 6.26283 | 32244 ft | 477 kts | 296° |
| 2026-05-01 14:23 | 51.11904 | 6.16819 | 32242 ft | 477 kts | 296° |
| 2026-05-01 14:23 | 51.14543 | 6.07128 | 32231 ft | 477 kts | 287° |
| 2026-05-01 14:24 | 51.16139 | 5.96895 | 32233 ft | 476 kts | 283° |
| 2026-05-01 14:24 | 51.17925 | 5.86732 | 32242 ft | 477 kts | 291° |
| 2026-05-01 14:25 | 51.20908 | 5.77266 | 32243 ft | 478 kts | 302° |
| 2026-05-01 14:25 | 51.24743 | 5.68665 | 32229 ft | 478 kts | 305° |
| 2026-05-01 14:26 | 51.30604 | 5.55699 | 32246 ft | 478 kts | 304° |
| 2026-05-01 14:27 | 51.34430 | 5.47065 | 32238 ft | 478 kts | 304° |
| 2026-05-01 14:27 | 51.38266 | 5.38364 | 32241 ft | 479 kts | 304° |
| 2026-05-01 14:28 | 51.43151 | 5.24432 | 32248 ft | 479 kts | 296° |
| 2026-05-01 14:28 | 51.46239 | 5.14958 | 32240 ft | 481 kts | 296° |
| 2026-05-01 14:29 | 51.49369 | 5.05466 | 32238 ft | 482 kts | 296° |
| 2026-05-01 14:30 | 51.55389 | 4.86320 | 32226 ft | 480 kts | 289° |
| 2026-05-01 14:31 | 51.57668 | 4.70722 | 32230 ft | 477 kts | 278° |
| 2026-05-01 14:31 | 51.58758 | 4.60198 | 32216 ft | 477 kts | 278° |
| 2026-05-01 14:32 | 51.59865 | 4.49715 | 32214 ft | 477 kts | 278° |
| 2026-05-01 14:32 | 51.60806 | 4.40888 | 32214 ft | 477 kts | 278° |
| 2026-05-01 14:33 | 51.61925 | 4.30350 | 32211 ft | 478 kts | 278° |
| 2026-05-01 14:33 | 51.63027 | 4.19886 | 32205 ft | 478 kts | 278° |
| 2026-05-01 14:34 | 51.64125 | 4.09341 | 32210 ft | 478 kts | 278° |
| 2026-05-01 14:34 | 51.65217 | 3.98770 | 32211 ft | 478 kts | 278° |
| 2026-05-01 14:35 | 51.66297 | 3.88213 | 32213 ft | 477 kts | 278° |
| 2026-05-01 14:35 | 51.67366 | 3.77653 | 32209 ft | 478 kts | 277° |
| 2026-05-01 14:36 | 51.68427 | 3.67082 | 32215 ft | 478 kts | 277° |
| 2026-05-01 14:36 | 51.69479 | 3.56504 | 32211 ft | 478 kts | 277° |
| 2026-05-01 14:37 | 51.70522 | 3.45918 | 32212 ft | 478 kts | 277° |
| 2026-05-01 14:37 | 51.71557 | 3.35314 | 32219 ft | 479 kts | 276° |
| 2026-05-01 14:38 | 51.72583 | 3.24706 | 32210 ft | 479 kts | 276° |
| 2026-05-01 14:38 | 51.72973 | 3.14045 | 32219 ft | 475 kts | 265° |
| 2026-05-01 14:39 | 51.72184 | 3.03506 | 32217 ft | 473 kts | 259° |
| 2026-05-01 14:39 | 51.71219 | 2.93004 | 32206 ft | 474 kts | 259° |
| 2026-05-01 14:40 | 51.70291 | 2.82495 | 32209 ft | 474 kts | 259° |
| 2026-05-01 14:40 | 51.69369 | 2.71966 | 32200 ft | 474 kts | 259° |
| 2026-05-01 14:41 | 51.68433 | 2.61472 | 32202 ft | 473 kts | 259° |
| 2026-05-01 14:41 | 51.67486 | 2.50945 | 32198 ft | 473 kts | 259° |
| 2026-05-01 14:42 | 51.66517 | 2.40464 | 32216 ft | 473 kts | 258° |
| 2026-05-01 14:42 | 51.65528 | 2.30003 | 32201 ft | 472 kts | 258° |
| 2026-05-01 14:43 | 51.64537 | 2.19553 | 32194 ft | 472 kts | 258° |
| 2026-05-01 14:43 | 51.63548 | 2.09193 | 32192 ft | 471 kts | 258° |
| 2026-05-01 14:44 | 51.62609 | 1.98756 | 32195 ft | 471 kts | 258° |
| 2026-05-01 14:44 | 51.61166 | 1.83119 | 32200 ft | 471 kts | 258° |
| 2026-05-01 14:45 | 51.59699 | 1.67510 | 32195 ft | 471 kts | 258° |
| 2026-05-01 14:46 | 51.59202 | 1.56968 | 32190 ft | 476 kts | 269° |
| 2026-05-01 14:46 | 51.59958 | 1.40999 | 32202 ft | 477 kts | 270° |
| 2026-05-01 14:47 | 51.60411 | 1.30392 | 32192 ft | 478 kts | 270° |
| 2026-05-01 14:48 | 51.61038 | 1.14375 | 32183 ft | 478 kts | 270° |
| 2026-05-01 14:48 | 51.61644 | 0.98342 | 32181 ft | 478 kts | 270° |
| 2026-05-01 14:49 | 51.62505 | 0.76966 | 32190 ft | 479 kts | 270° |
| 2026-05-01 14:50 | 51.63215 | 0.55585 | 32187 ft | 479 kts | 270° |
| 2026-05-01 14:51 | 51.63801 | 0.39545 | 32180 ft | 479 kts | 269° |
| 2026-05-01 14:52 | 51.64331 | 0.23539 | 32154 ft | 479 kts | 269° |
| 2026-05-01 14:53 | 51.63879 | 0.07616 | 32155 ft | 471 kts | 255° |
| 2026-05-01 14:53 | 51.62667 | -0.02764 | 32148 ft | 472 kts | 256° |
| 2026-05-01 14:54 | 51.61937 | -0.13226 | 32141 ft | 476 kts | 265° |
| 2026-05-01 14:54 | 51.62356 | -0.23909 | 32137 ft | 480 kts | 272° |
| 2026-05-01 14:55 | 51.63059 | -0.34601 | 32133 ft | 480 kts | 272° |
| 2026-05-01 14:55 | 51.63726 | -0.45270 | 32126 ft | 480 kts | 272° |
| 2026-05-01 14:56 | 51.64362 | -0.55971 | 32134 ft | 480 kts | 272° |
| 2026-05-01 14:56 | 51.64981 | -0.66671 | 32129 ft | 480 kts | 272° |
| 2026-05-01 14:57 | 51.65590 | -0.77359 | 32134 ft | 479 kts | 272° |
| 2026-05-01 14:57 | 51.66483 | -0.93318 | 32131 ft | 479 kts | 271° |
| 2026-05-01 14:58 | 51.67069 | -1.04021 | 32138 ft | 479 kts | 272° |
| 2026-05-01 14:58 | 51.67646 | -1.14728 | 32128 ft | 479 kts | 272° |
| 2026-05-01 14:59 | 51.68213 | -1.25424 | 32130 ft | 479 kts | 271° |
| 2026-05-01 14:59 | 51.68766 | -1.36045 | 32128 ft | 479 kts | 271° |
| 2026-05-01 15:00 | 51.69582 | -1.52092 | 32137 ft | 479 kts | 272° |
| 2026-05-01 15:01 | 51.70116 | -1.62796 | 32135 ft | 479 kts | 271° |
| 2026-05-01 15:01 | 51.70678 | -1.73489 | 32150 ft | 479 kts | 273° |
| 2026-05-01 15:02 | 51.71461 | -1.84181 | 32145 ft | 479 kts | 274° |
| 2026-05-01 15:02 | 51.72274 | -1.94834 | 32176 ft | 479 kts | 274° |
| 2026-05-01 15:03 | 51.73048 | -2.05505 | 32155 ft | 478 kts | 273° |
| 2026-05-01 15:03 | 51.73792 | -2.16172 | 32155 ft | 478 kts | 273° |
| 2026-05-01 15:04 | 51.74517 | -2.26753 | 32157 ft | 477 kts | 273° |
| 2026-05-01 15:04 | 51.75239 | -2.37408 | 32153 ft | 477 kts | 273° |
| 2026-05-01 15:05 | 51.75950 | -2.48043 | 32162 ft | 476 kts | 272° |
| 2026-05-01 15:05 | 51.76648 | -2.58642 | 32155 ft | 476 kts | 272° |
| 2026-05-01 15:06 | 51.77340 | -2.69287 | 32165 ft | 477 kts | 272° |
| 2026-05-01 15:06 | 51.78023 | -2.79929 | 32162 ft | 476 kts | 272° |
| 2026-05-01 15:07 | 51.78695 | -2.90577 | 32102 ft | 476 kts | 272° |
| 2026-05-01 15:07 | 51.79354 | -3.01157 | 32111 ft | 476 kts | 272° |
| 2026-05-01 15:08 | 51.80009 | -3.11819 | 32114 ft | 477 kts | 271° |
| 2026-05-01 15:08 | 51.80654 | -3.22477 | 32137 ft | 477 kts | 271° |
| 2026-05-01 15:09 | 51.81280 | -3.33134 | 32155 ft | 477 kts | 271° |
| 2026-05-01 15:09 | 51.81912 | -3.43819 | 32192 ft | 477 kts | 271° |
| 2026-05-01 15:10 | 51.82571 | -3.54488 | 32186 ft | 478 kts | 274° |
| 2026-05-01 15:10 | 51.84589 | -3.70346 | 32186 ft | 480 kts | 278° |
| 2026-05-01 15:11 | 51.86672 | -3.86170 | 32189 ft | 479 kts | 277° |
| 2026-05-01 15:12 | 51.88019 | -3.96727 | 32192 ft | 480 kts | 276° |
| 2026-05-01 15:12 | 51.90020 | -4.12628 | 32189 ft | 481 kts | 276° |
| 2026-05-01 15:14 | 51.93324 | -4.39232 | 32181 ft | 482 kts | 276° |
| 2026-05-01 15:14 | 51.95274 | -4.55189 | 32175 ft | 484 kts | 275° |
| 2026-05-01 15:15 | 51.97651 | -4.74892 | 32169 ft | 484 kts | 275° |
| 2026-05-01 15:16 | 52.00192 | -4.96286 | 32175 ft | 485 kts | 275° |
| 2026-05-01 15:18 | 52.03541 | -5.23122 | 32158 ft | 490 kts | 282° |
| 2026-05-01 15:19 | 52.07903 | -5.44172 | 32172 ft | 491 kts | 282° |
| 2026-05-01 15:19 | 52.11064 | -5.59864 | 32169 ft | 491 kts | 282° |
| 2026-05-01 15:20 | 52.14235 | -5.75786 | 32165 ft | 491 kts | 282° |
| 2026-05-01 15:21 | 52.16258 | -5.86333 | 32150 ft | 488 kts | 278° |
| 2026-05-01 15:21 | 52.17733 | -5.97098 | 32174 ft | 486 kts | 275° |
| 2026-05-01 15:22 | 52.19748 | -6.13312 | 32161 ft | 487 kts | 275° |
| 2026-05-01 15:22 | 52.21127 | -6.24160 | 32154 ft | 488 kts | 275° |
| 2026-05-01 15:23 | 52.22519 | -6.34991 | 32146 ft | 488 kts | 275° |
| 2026-05-01 15:23 | 52.23907 | -6.45837 | 32173 ft | 489 kts | 275° |
| 2026-05-01 15:24 | 52.25287 | -6.56721 | 32156 ft | 489 kts | 275° |
| 2026-05-01 15:24 | 52.26653 | -6.67592 | 32149 ft | 489 kts | 275° |
| 2026-05-01 15:25 | 52.28009 | -6.78466 | 32152 ft | 488 kts | 275° |
| 2026-05-01 15:25 | 52.29352 | -6.89327 | 32151 ft | 488 kts | 275° |
| 2026-05-01 15:26 | 52.30677 | -7.00125 | 32164 ft | 488 kts | 275° |
| 2026-05-01 15:26 | 52.31998 | -7.10991 | 32155 ft | 488 kts | 274° |
| 2026-05-01 15:27 | 52.33312 | -7.21880 | 32158 ft | 488 kts | 274° |
| 2026-05-01 15:28 | 52.35263 | -7.38222 | 32135 ft | 489 kts | 274° |
| 2026-05-01 15:28 | 52.36555 | -7.49142 | 32171 ft | 489 kts | 274° |
| 2026-05-01 15:29 | 52.38471 | -7.65511 | 32116 ft | 487 kts | 274° |
| 2026-05-01 15:30 | 52.40977 | -7.87256 | 32109 ft | 485 kts | 274° |
| 2026-05-01 15:31 | 52.44649 | -8.19814 | 32091 ft | 483 kts | 274° |
| 2026-05-01 15:32 | 52.47032 | -8.41409 | 32082 ft | 482 kts | 274° |
| 2026-05-01 15:34 | 52.50549 | -8.74007 | 32079 ft | 483 kts | 274° |